sensor_id;sensor_type;location;lat;lon;timestamp;temperature;humidity
14585;DHT22;7379;51.506;11.876;2023-05-07T00:00:23;15.20;65.00
14585;DHT22;7379;51.506;11.876;2023-05-07T00:02:51;15.20;65.00
14585;DHT22;7379;51.506;11.876;2023-05-07T00:05:18;15.20;65.00
14585;DHT22;7379;51.506;11.876;2023-05-07T00:07:46;15.20;65.10
14585;DHT22;7379;51.506;11.876;2023-05-07T00:10:12;15.20;65.10
14585;DHT22;7379;51.506;11.876;2023-05-07T00:12:40;15.10;65.10
14585;DHT22;7379;51.506;11.876;2023-05-07T00:15:08;15.10;65.10
14585;DHT22;7379;51.506;11.876;2023-05-07T00:17:36;15.10;65.10
14585;DHT22;7379;51.506;11.876;2023-05-07T00:20:03;15.10;65.20
14585;DHT22;7379;51.506;11.876;2023-05-07T00:22:31;15.10;65.20
14585;DHT22;7379;51.506;11.876;2023-05-07T00:24:58;15.10;65.20
14585;DHT22;7379;51.506;11.876;2023-05-07T00:27:25;15.00;65.20
14585;DHT22;7379;51.506;11.876;2023-05-07T00:29:51;15.00;65.20
14585;DHT22;7379;51.506;11.876;2023-05-07T00:32:18;15.00;65.20
14585;DHT22;7379;51.506;11.876;2023-05-07T00:34:46;15.00;65.20
14585;DHT22;7379;51.506;11.876;2023-05-07T00:37:13;15.00;65.30
14585;DHT22;7379;51.506;11.876;2023-05-07T00:39:40;15.00;65.30
14585;DHT22;7379;51.506;11.876;2023-05-07T00:42:07;15.00;65.30
14585;DHT22;7379;51.506;11.876;2023-05-07T00:44:34;15.00;65.40
14585;DHT22;7379;51.506;11.876;2023-05-07T00:47:02;15.00;65.40
14585;DHT22;7379;51.506;11.876;2023-05-07T00:49:37;14.90;65.30
14585;DHT22;7379;51.506;11.876;2023-05-07T00:52:06;14.90;65.30
14585;DHT22;7379;51.506;11.876;2023-05-07T00:54:34;14.90;65.30
14585;DHT22;7379;51.506;11.876;2023-05-07T00:57:02;14.90;65.30
14585;DHT22;7379;51.506;11.876;2023-05-07T00:59:29;14.90;65.30
14585;DHT22;7379;51.506;11.876;2023-05-07T01:01:56;14.90;65.40
14585;DHT22;7379;51.506;11.876;2023-05-07T01:04:23;14.80;65.30
14585;DHT22;7379;51.506;11.876;2023-05-07T01:06:50;14.80;65.30
14585;DHT22;7379;51.506;11.876;2023-05-07T01:09:19;14.80;65.30
14585;DHT22;7379;51.506;11.876;2023-05-07T01:11:47;14.80;65.30
14585;DHT22;7379;51.506;11.876;2023-05-07T01:14:14;14.80;66.10
14585;DHT22;7379;51.506;11.876;2023-05-07T01:16:41;14.80;65.30
14585;DHT22;7379;51.506;11.876;2023-05-07T01:19:08;14.80;65.30
14585;DHT22;7379;51.506;11.876;2023-05-07T01:21:37;14.80;65.30
14585;DHT22;7379;51.506;11.876;2023-05-07T01:24:06;14.80;65.30
14585;DHT22;7379;51.506;11.876;2023-05-07T01:26:33;14.70;65.20
14585;DHT22;7379;51.506;11.876;2023-05-07T01:29:00;14.70;65.20
14585;DHT22;7379;51.506;11.876;2023-05-07T01:31:27;14.70;65.20
14585;DHT22;7379;51.506;11.876;2023-05-07T01:33:57;14.70;65.20
14585;DHT22;7379;51.506;11.876;2023-05-07T01:36:25;14.70;65.20
14585;DHT22;7379;51.506;11.876;2023-05-07T01:38:54;14.70;65.20
14585;DHT22;7379;51.506;11.876;2023-05-07T01:41:25;14.70;65.20
14585;DHT22;7379;51.506;11.876;2023-05-07T01:43:52;14.70;65.90
14585;DHT22;7379;51.506;11.876;2023-05-07T01:46:20;14.70;65.90
14585;DHT22;7379;51.506;11.876;2023-05-07T01:48:47;14.70;65.20
14585;DHT22;7379;51.506;11.876;2023-05-07T01:51:14;14.60;65.10
14585;DHT22;7379;51.506;11.876;2023-05-07T01:53:41;14.60;65.10
14585;DHT22;7379;51.506;11.876;2023-05-07T01:56:09;14.60;65.10
14585;DHT22;7379;51.506;11.876;2023-05-07T01:58:37;14.60;65.10
14585;DHT22;7379;51.506;11.876;2023-05-07T02:01:04;14.60;65.10
14585;DHT22;7379;51.506;11.876;2023-05-07T02:03:31;14.60;65.10
14585;DHT22;7379;51.506;11.876;2023-05-07T02:05:57;14.60;65.10
14585;DHT22;7379;51.506;11.876;2023-05-07T02:08:24;14.60;65.10
14585;DHT22;7379;51.506;11.876;2023-05-07T02:10:51;14.50;65.00
14585;DHT22;7379;51.506;11.876;2023-05-07T02:13:19;14.50;65.00
14585;DHT22;7379;51.506;11.876;2023-05-07T02:15:48;14.50;65.00
14585;DHT22;7379;51.506;11.876;2023-05-07T02:18:16;14.50;65.00
14585;DHT22;7379;51.506;11.876;2023-05-07T02:20:43;14.50;65.00
14585;DHT22;7379;51.506;11.876;2023-05-07T02:23:10;14.50;65.00
14585;DHT22;7379;51.506;11.876;2023-05-07T02:25:37;14.50;65.00
14585;DHT22;7379;51.506;11.876;2023-05-07T02:28:04;14.50;65.00
14585;DHT22;7379;51.506;11.876;2023-05-07T02:30:31;14.50;65.10
14585;DHT22;7379;51.506;11.876;2023-05-07T02:33:00;14.50;65.00
14585;DHT22;7379;51.506;11.876;2023-05-07T02:35:26;14.40;65.00
14585;DHT22;7379;51.506;11.876;2023-05-07T02:37:53;14.40;65.00
14585;DHT22;7379;51.506;11.876;2023-05-07T02:40:20;14.40;65.00
14585;DHT22;7379;51.506;11.876;2023-05-07T02:42:47;14.40;65.00
14585;DHT22;7379;51.506;11.876;2023-05-07T02:45:14;14.40;65.00
14585;DHT22;7379;51.506;11.876;2023-05-07T02:47:40;14.40;65.00
14585;DHT22;7379;51.506;11.876;2023-05-07T02:50:09;14.40;65.00
14585;DHT22;7379;51.506;11.876;2023-05-07T02:52:36;14.40;65.00
14585;DHT22;7379;51.506;11.876;2023-05-07T02:55:03;14.40;65.00
14585;DHT22;7379;51.506;11.876;2023-05-07T02:57:30;14.40;65.00
14585;DHT22;7379;51.506;11.876;2023-05-07T02:59:58;14.40;65.00
14585;DHT22;7379;51.506;11.876;2023-05-07T03:02:25;14.40;65.00
14585;DHT22;7379;51.506;11.876;2023-05-07T03:04:51;14.30;64.90
14585;DHT22;7379;51.506;11.876;2023-05-07T03:07:20;14.30;64.90
14585;DHT22;7379;51.506;11.876;2023-05-07T03:09:46;14.30;64.90
14585;DHT22;7379;51.506;11.876;2023-05-07T03:12:13;14.30;64.90
14585;DHT22;7379;51.506;11.876;2023-05-07T03:14:40;14.30;65.00
14585;DHT22;7379;51.506;11.876;2023-05-07T03:17:07;14.30;65.00
14585;DHT22;7379;51.506;11.876;2023-05-07T03:19:33;14.30;65.00
14585;DHT22;7379;51.506;11.876;2023-05-07T03:22:00;14.30;65.00
14585;DHT22;7379;51.506;11.876;2023-05-07T03:24:28;14.30;65.00
14585;DHT22;7379;51.506;11.876;2023-05-07T03:26:55;14.30;65.00
14585;DHT22;7379;51.506;11.876;2023-05-07T03:29:23;14.30;65.00
14585;DHT22;7379;51.506;11.876;2023-05-07T03:31:50;14.20;64.90
14585;DHT22;7379;51.506;11.876;2023-05-07T03:34:17;14.20;64.90
14585;DHT22;7379;51.506;11.876;2023-05-07T03:36:47;14.20;64.90
14585;DHT22;7379;51.506;11.876;2023-05-07T03:39:14;14.20;65.00
14585;DHT22;7379;51.506;11.876;2023-05-07T03:41:42;14.20;65.00
14585;DHT22;7379;51.506;11.876;2023-05-07T03:44:09;14.20;65.00
14585;DHT22;7379;51.506;11.876;2023-05-07T03:46:36;14.20;65.00
14585;DHT22;7379;51.506;11.876;2023-05-07T03:49:03;14.20;65.00
14585;DHT22;7379;51.506;11.876;2023-05-07T03:51:30;14.20;65.00
14585;DHT22;7379;51.506;11.876;2023-05-07T03:53:57;14.20;65.10
14585;DHT22;7379;51.506;11.876;2023-05-07T03:56:23;14.20;65.10
14585;DHT22;7379;51.506;11.876;2023-05-07T03:58:53;14.20;65.10
14585;DHT22;7379;51.506;11.876;2023-05-07T04:01:20;14.10;65.00
14585;DHT22;7379;51.506;11.876;2023-05-07T04:03:47;14.10;65.00
14585;DHT22;7379;51.506;11.876;2023-05-07T04:06:15;14.10;65.00
14585;DHT22;7379;51.506;11.876;2023-05-07T04:08:42;14.10;65.00
14585;DHT22;7379;51.506;11.876;2023-05-07T04:11:08;14.10;65.00
14585;DHT22;7379;51.506;11.876;2023-05-07T04:13:35;14.10;65.10
14585;DHT22;7379;51.506;11.876;2023-05-07T04:16:04;14.10;65.10
14585;DHT22;7379;51.506;11.876;2023-05-07T04:18:31;14.10;65.10
14585;DHT22;7379;51.506;11.876;2023-05-07T04:20:58;14.10;65.10
14585;DHT22;7379;51.506;11.876;2023-05-07T04:23:25;14.10;65.10
14585;DHT22;7379;51.506;11.876;2023-05-07T04:25:52;14.10;65.20
14585;DHT22;7379;51.506;11.876;2023-05-07T04:28:19;14.00;65.00
14585;DHT22;7379;51.506;11.876;2023-05-07T04:30:46;14.00;65.10
14585;DHT22;7379;51.506;11.876;2023-05-07T04:33:15;14.00;65.00
14585;DHT22;7379;51.506;11.876;2023-05-07T04:35:42;14.00;65.10
14585;DHT22;7379;51.506;11.876;2023-05-07T04:38:09;14.00;65.10
14585;DHT22;7379;51.506;11.876;2023-05-07T04:40:36;14.00;65.20
14585;DHT22;7379;51.506;11.876;2023-05-07T04:43:04;14.00;65.10
14585;DHT22;7379;51.506;11.876;2023-05-07T04:45:31;14.00;65.20
14585;DHT22;7379;51.506;11.876;2023-05-07T04:47:58;14.00;65.20
14585;DHT22;7379;51.506;11.876;2023-05-07T04:50:26;14.00;65.20
14585;DHT22;7379;51.506;11.876;2023-05-07T04:52:53;13.90;65.10
14585;DHT22;7379;51.506;11.876;2023-05-07T04:55:20;14.00;65.20
14585;DHT22;7379;51.506;11.876;2023-05-07T04:57:46;13.90;66.00
14585;DHT22;7379;51.506;11.876;2023-05-07T05:00:14;14.00;65.30
14585;DHT22;7379;51.506;11.876;2023-05-07T05:02:42;13.90;65.30
14585;DHT22;7379;51.506;11.876;2023-05-07T05:05:08;13.90;65.30
14585;DHT22;7379;51.506;11.876;2023-05-07T05:07:37;13.90;65.30
14585;DHT22;7379;51.506;11.876;2023-05-07T05:10:05;13.90;65.30
14585;DHT22;7379;51.506;11.876;2023-05-07T05:12:32;13.90;65.40
14585;DHT22;7379;51.506;11.876;2023-05-07T05:14:59;13.90;65.30
14585;DHT22;7379;51.506;11.876;2023-05-07T05:17:26;13.90;65.30
14585;DHT22;7379;51.506;11.876;2023-05-07T05:19:53;13.90;65.40
14585;DHT22;7379;51.506;11.876;2023-05-07T05:22:20;13.90;65.40
14585;DHT22;7379;51.506;11.876;2023-05-07T05:24:48;13.90;65.40
14585;DHT22;7379;51.506;11.876;2023-05-07T05:27:14;13.90;65.40
14585;DHT22;7379;51.506;11.876;2023-05-07T05:29:41;13.90;65.40
14585;DHT22;7379;51.506;11.876;2023-05-07T05:32:08;13.90;66.20
14585;DHT22;7379;51.506;11.876;2023-05-07T05:34:35;13.90;65.50
14585;DHT22;7379;51.506;11.876;2023-05-07T05:37:02;13.80;65.40
14585;DHT22;7379;51.506;11.876;2023-05-07T05:39:29;13.90;65.50
14585;DHT22;7379;51.506;11.876;2023-05-07T05:41:57;13.80;65.50
14585;DHT22;7379;51.506;11.876;2023-05-07T05:44:24;13.80;65.50
14585;DHT22;7379;51.506;11.876;2023-05-07T05:46:51;13.80;65.50
14585;DHT22;7379;51.506;11.876;2023-05-07T05:49:20;13.80;65.50
14585;DHT22;7379;51.506;11.876;2023-05-07T05:51:47;13.80;66.30
14585;DHT22;7379;51.506;11.876;2023-05-07T05:54:14;13.80;65.50
14585;DHT22;7379;51.506;11.876;2023-05-07T05:56:41;13.80;65.50
14585;DHT22;7379;51.506;11.876;2023-05-07T05:59:10;13.80;65.50
14585;DHT22;7379;51.506;11.876;2023-05-07T06:01:37;13.80;65.50
14585;DHT22;7379;51.506;11.876;2023-05-07T06:04:04;13.80;65.50
14585;DHT22;7379;51.506;11.876;2023-05-07T06:06:30;13.80;65.50
14585;DHT22;7379;51.506;11.876;2023-05-07T06:08:58;13.80;65.50
14585;DHT22;7379;51.506;11.876;2023-05-07T06:11:25;13.80;65.50
14585;DHT22;7379;51.506;11.876;2023-05-07T06:13:51;13.80;65.50
14585;DHT22;7379;51.506;11.876;2023-05-07T06:16:20;13.80;65.60
14585;DHT22;7379;51.506;11.876;2023-05-07T06:18:46;13.80;65.50
14585;DHT22;7379;51.506;11.876;2023-05-07T06:21:13;13.80;65.50
14585;DHT22;7379;51.506;11.876;2023-05-07T06:23:40;13.70;65.40
14585;DHT22;7379;51.506;11.876;2023-05-07T06:26:07;13.80;65.60
14585;DHT22;7379;51.506;11.876;2023-05-07T06:28:34;13.70;65.40
14585;DHT22;7379;51.506;11.876;2023-05-07T06:31:11;13.70;65.40
14585;DHT22;7379;51.506;11.876;2023-05-07T06:33:39;13.70;65.40
14585;DHT22;7379;51.506;11.876;2023-05-07T06:36:07;13.70;65.40
14585;DHT22;7379;51.506;11.876;2023-05-07T06:38:33;13.70;65.50
14585;DHT22;7379;51.506;11.876;2023-05-07T06:41:00;13.70;65.40
14585;DHT22;7379;51.506;11.876;2023-05-07T06:43:27;13.70;65.50
14585;DHT22;7379;51.506;11.876;2023-05-07T06:45:54;13.70;65.40
14585;DHT22;7379;51.506;11.876;2023-05-07T06:48:20;13.70;65.50
14585;DHT22;7379;51.506;11.876;2023-05-07T06:50:49;13.70;65.40
14585;DHT22;7379;51.506;11.876;2023-05-07T06:53:15;13.70;65.40
14585;DHT22;7379;51.506;11.876;2023-05-07T06:55:42;13.70;65.40
14585;DHT22;7379;51.506;11.876;2023-05-07T06:58:09;13.70;65.40
14585;DHT22;7379;51.506;11.876;2023-05-07T07:00:36;13.70;65.40
14585;DHT22;7379;51.506;11.876;2023-05-07T07:03:03;13.70;65.40
14585;DHT22;7379;51.506;11.876;2023-05-07T07:05:29;13.60;65.30
14585;DHT22;7379;51.506;11.876;2023-05-07T07:07:57;13.60;65.30
14585;DHT22;7379;51.506;11.876;2023-05-07T07:10:24;13.70;65.40
14585;DHT22;7379;51.506;11.876;2023-05-07T07:12:51;13.60;65.30
14585;DHT22;7379;51.506;11.876;2023-05-07T07:15:19;13.70;65.30
14585;DHT22;7379;51.506;11.876;2023-05-07T07:17:47;13.70;65.30
14585;DHT22;7379;51.506;11.876;2023-05-07T07:20:14;13.70;65.30
14585;DHT22;7379;51.506;11.876;2023-05-07T07:22:41;13.70;65.30
14585;DHT22;7379;51.506;11.876;2023-05-07T07:25:10;13.70;65.30
14585;DHT22;7379;51.506;11.876;2023-05-07T07:27:37;13.60;65.20
14585;DHT22;7379;51.506;11.876;2023-05-07T07:30:06;13.70;65.20
14585;DHT22;7379;51.506;11.876;2023-05-07T07:32:34;13.70;65.20
14585;DHT22;7379;51.506;11.876;2023-05-07T07:35:00;13.60;65.10
14585;DHT22;7379;51.506;11.876;2023-05-07T07:37:27;13.70;65.20
14585;DHT22;7379;51.506;11.876;2023-05-07T07:39:55;13.60;65.10
14585;DHT22;7379;51.506;11.876;2023-05-07T07:42:23;13.60;65.80
14585;DHT22;7379;51.506;11.876;2023-05-07T07:44:50;13.60;64.90
14585;DHT22;7379;51.506;11.876;2023-05-07T07:47:17;13.50;64.80
14585;DHT22;7379;51.506;11.876;2023-05-07T07:49:44;13.40;64.90
14585;DHT22;7379;51.506;11.876;2023-05-07T07:52:10;13.40;65.10
14585;DHT22;7379;51.506;11.876;2023-05-07T07:54:37;13.40;65.20
14585;DHT22;7379;51.506;11.876;2023-05-07T07:57:04;13.40;65.20
14585;DHT22;7379;51.506;11.876;2023-05-07T07:59:32;13.40;65.20
14585;DHT22;7379;51.506;11.876;2023-05-07T08:01:59;13.50;65.20
14585;DHT22;7379;51.506;11.876;2023-05-07T08:04:26;13.50;65.10
14585;DHT22;7379;51.506;11.876;2023-05-07T08:06:53;13.50;65.00
14585;DHT22;7379;51.506;11.876;2023-05-07T08:09:21;13.50;65.00
14585;DHT22;7379;51.506;11.876;2023-05-07T08:11:48;13.50;65.00
14585;DHT22;7379;51.506;11.876;2023-05-07T08:14:15;13.50;64.90
14585;DHT22;7379;51.506;11.876;2023-05-07T08:16:43;13.50;64.90
14585;DHT22;7379;51.506;11.876;2023-05-07T08:19:10;13.50;64.90
14585;DHT22;7379;51.506;11.876;2023-05-07T08:21:39;13.50;64.80
14585;DHT22;7379;51.506;11.876;2023-05-07T08:24:06;13.50;64.80
14585;DHT22;7379;51.506;11.876;2023-05-07T08:26:33;13.50;64.70
14585;DHT22;7379;51.506;11.876;2023-05-07T08:29:01;13.50;64.80
14585;DHT22;7379;51.506;11.876;2023-05-07T08:31:28;13.50;64.70
14585;DHT22;7379;51.506;11.876;2023-05-07T08:33:56;13.50;64.70
14585;DHT22;7379;51.506;11.876;2023-05-07T08:36:23;13.50;65.40
14585;DHT22;7379;51.506;11.876;2023-05-07T08:38:51;13.50;64.60
14585;DHT22;7379;51.506;11.876;2023-05-07T08:41:18;13.50;65.30
14585;DHT22;7379;51.506;11.876;2023-05-07T08:43:48;13.50;64.50
14585;DHT22;7379;51.506;11.876;2023-05-07T08:46:17;13.50;64.50
14585;DHT22;7379;51.506;11.876;2023-05-07T08:48:44;13.50;64.50
14585;DHT22;7379;51.506;11.876;2023-05-07T08:51:15;13.50;64.50
14585;DHT22;7379;51.506;11.876;2023-05-07T08:53:43;13.50;64.60
14585;DHT22;7379;51.506;11.876;2023-05-07T08:56:10;13.50;64.50
14585;DHT22;7379;51.506;11.876;2023-05-07T08:58:37;13.50;64.40
14585;DHT22;7379;51.506;11.876;2023-05-07T09:01:07;13.50;64.40
14585;DHT22;7379;51.506;11.876;2023-05-07T09:03:34;13.50;64.50
14585;DHT22;7379;51.506;11.876;2023-05-07T09:06:01;13.50;64.60
14585;DHT22;7379;51.506;11.876;2023-05-07T09:08:29;13.50;64.50
14585;DHT22;7379;51.506;11.876;2023-05-07T09:10:56;13.50;64.40
14585;DHT22;7379;51.506;11.876;2023-05-07T09:13:23;13.50;64.40
14585;DHT22;7379;51.506;11.876;2023-05-07T09:15:50;13.50;65.20
14585;DHT22;7379;51.506;11.876;2023-05-07T09:18:16;13.50;64.30
14585;DHT22;7379;51.506;11.876;2023-05-07T09:20:43;13.50;64.30
14585;DHT22;7379;51.506;11.876;2023-05-07T09:23:10;13.50;64.30
14585;DHT22;7379;51.506;11.876;2023-05-07T09:25:38;13.50;64.10
14585;DHT22;7379;51.506;11.876;2023-05-07T09:28:05;13.50;64.20
14585;DHT22;7379;51.506;11.876;2023-05-07T09:30:33;13.50;64.20
14585;DHT22;7379;51.506;11.876;2023-05-07T09:33:02;13.50;64.20
14585;DHT22;7379;51.506;11.876;2023-05-07T09:35:30;13.50;64.20
14585;DHT22;7379;51.506;11.876;2023-05-07T09:37:57;13.50;64.10
14585;DHT22;7379;51.506;11.876;2023-05-07T09:40:25;13.50;64.10
14585;DHT22;7379;51.506;11.876;2023-05-07T09:42:54;13.50;64.20
14585;DHT22;7379;51.506;11.876;2023-05-07T09:45:22;13.50;64.20
14585;DHT22;7379;51.506;11.876;2023-05-07T09:47:54;13.50;64.20
14585;DHT22;7379;51.506;11.876;2023-05-07T09:50:22;13.50;64.20
14585;DHT22;7379;51.506;11.876;2023-05-07T09:52:52;13.50;64.10
14585;DHT22;7379;51.506;11.876;2023-05-07T09:55:20;13.50;64.10
14585;DHT22;7379;51.506;11.876;2023-05-07T09:57:48;13.50;64.20
14585;DHT22;7379;51.506;11.876;2023-05-07T10:00:18;13.60;64.70
14585;DHT22;7379;51.506;11.876;2023-05-07T10:02:47;13.50;64.40
14585;DHT22;7379;51.506;11.876;2023-05-07T10:05:15;13.50;64.60
14585;DHT22;7379;51.506;11.876;2023-05-07T10:07:43;13.40;64.50
14585;DHT22;7379;51.506;11.876;2023-05-07T10:10:11;13.40;64.90
14585;DHT22;7379;51.506;11.876;2023-05-07T10:12:38;13.40;64.80
14585;DHT22;7379;51.506;11.876;2023-05-07T10:15:07;13.40;64.50
14585;DHT22;7379;51.506;11.876;2023-05-07T10:17:37;13.50;64.70
14585;DHT22;7379;51.506;11.876;2023-05-07T10:20:04;13.50;64.50
14585;DHT22;7379;51.506;11.876;2023-05-07T10:22:38;13.50;64.50
14585;DHT22;7379;51.506;11.876;2023-05-07T10:25:09;13.50;64.30
14585;DHT22;7379;51.506;11.876;2023-05-07T10:27:40;13.50;64.30
14585;DHT22;7379;51.506;11.876;2023-05-07T10:30:15;13.50;64.20
14585;DHT22;7379;51.506;11.876;2023-05-07T10:32:49;13.50;63.90
14585;DHT22;7379;51.506;11.876;2023-05-07T10:35:20;13.40;63.90
14585;DHT22;7379;51.506;11.876;2023-05-07T10:37:48;13.40;64.10
14585;DHT22;7379;51.506;11.876;2023-05-07T10:40:16;13.40;64.20
14585;DHT22;7379;51.506;11.876;2023-05-07T10:42:54;13.40;64.20
14585;DHT22;7379;51.506;11.876;2023-05-07T10:45:23;13.40;64.20
14585;DHT22;7379;51.506;11.876;2023-05-07T10:48:10;13.40;64.10
14585;DHT22;7379;51.506;11.876;2023-05-07T10:50:38;13.40;64.10
14585;DHT22;7379;51.506;11.876;2023-05-07T10:53:24;13.40;64.10
14585;DHT22;7379;51.506;11.876;2023-05-07T10:58:44;13.50;64.20
14585;DHT22;7379;51.506;11.876;2023-05-07T11:01:10;13.50;64.20
14585;DHT22;7379;51.506;11.876;2023-05-07T11:07:31;13.50;64.20
14585;DHT22;7379;51.506;11.876;2023-05-07T11:09:59;13.50;64.20
14585;DHT22;7379;51.506;11.876;2023-05-07T11:12:52;13.50;64.20
14585;DHT22;7379;51.506;11.876;2023-05-07T11:15:44;13.50;64.30
14585;DHT22;7379;51.506;11.876;2023-05-07T11:18:12;13.50;64.30
14585;DHT22;7379;51.506;11.876;2023-05-07T11:20:56;13.50;64.30
14585;DHT22;7379;51.506;11.876;2023-05-07T11:23:59;13.50;64.30
14585;DHT22;7379;51.506;11.876;2023-05-07T11:26:28;13.60;64.50
14585;DHT22;7379;51.506;11.876;2023-05-07T11:28:55;13.60;64.70
14585;DHT22;7379;51.506;11.876;2023-05-07T11:31:24;13.50;64.50
14585;DHT22;7379;51.506;11.876;2023-05-07T11:33:52;13.60;64.50
14585;DHT22;7379;51.506;11.876;2023-05-07T11:36:20;13.60;64.50
14585;DHT22;7379;51.506;11.876;2023-05-07T11:38:47;13.60;64.40
14585;DHT22;7379;51.506;11.876;2023-05-07T11:41:16;13.60;64.40
14585;DHT22;7379;51.506;11.876;2023-05-07T11:43:56;13.60;64.30
14585;DHT22;7379;51.506;11.876;2023-05-07T11:46:23;13.60;64.30
14585;DHT22;7379;51.506;11.876;2023-05-07T11:48:50;13.60;64.20
14585;DHT22;7379;51.506;11.876;2023-05-07T11:51:21;13.60;64.30
14585;DHT22;7379;51.506;11.876;2023-05-07T11:53:48;13.60;64.30
14585;DHT22;7379;51.506;11.876;2023-05-07T11:56:18;13.60;64.20
14585;DHT22;7379;51.506;11.876;2023-05-07T11:58:46;13.60;64.20
14585;DHT22;7379;51.506;11.876;2023-05-07T12:01:14;13.60;64.10
14585;DHT22;7379;51.506;11.876;2023-05-07T12:03:42;13.60;64.10
14585;DHT22;7379;51.506;11.876;2023-05-07T12:06:10;13.60;64.20
14585;DHT22;7379;51.506;11.876;2023-05-07T12:08:39;13.60;64.20
14585;DHT22;7379;51.506;11.876;2023-05-07T12:11:09;13.60;64.10
14585;DHT22;7379;51.506;11.876;2023-05-07T12:13:38;13.60;64.20
14585;DHT22;7379;51.506;11.876;2023-05-07T12:16:06;13.60;64.20
14585;DHT22;7379;51.506;11.876;2023-05-07T12:18:34;13.60;64.20
14585;DHT22;7379;51.506;11.876;2023-05-07T12:21:02;13.60;64.10
14585;DHT22;7379;51.506;11.876;2023-05-07T12:23:30;13.70;64.20
14585;DHT22;7379;51.506;11.876;2023-05-07T12:25:57;13.70;64.20
14585;DHT22;7379;51.506;11.876;2023-05-07T12:28:25;13.70;64.10
14585;DHT22;7379;51.506;11.876;2023-05-07T12:30:53;13.60;64.80
14585;DHT22;7379;51.506;11.876;2023-05-07T12:33:24;13.60;64.00
14585;DHT22;7379;51.506;11.876;2023-05-07T12:35:54;13.70;64.20
14585;DHT22;7379;51.506;11.876;2023-05-07T12:38:21;13.70;64.10
14585;DHT22;7379;51.506;11.876;2023-05-07T12:40:49;13.70;64.00
14585;DHT22;7379;51.506;11.876;2023-05-07T12:43:17;13.70;63.90
14585;DHT22;7379;51.506;11.876;2023-05-07T12:45:44;13.70;63.90
14585;DHT22;7379;51.506;11.876;2023-05-07T12:48:14;13.70;63.90
14585;DHT22;7379;51.506;11.876;2023-05-07T12:50:41;13.70;63.80
14585;DHT22;7379;51.506;11.876;2023-05-07T12:53:11;13.70;63.80
14585;DHT22;7379;51.506;11.876;2023-05-07T12:55:42;13.70;63.70
14585;DHT22;7379;51.506;11.876;2023-05-07T12:58:15;13.70;63.80
14585;DHT22;7379;51.506;11.876;2023-05-07T13:00:43;13.70;63.80
14585;DHT22;7379;51.506;11.876;2023-05-07T13:03:10;13.70;63.80
14585;DHT22;7379;51.506;11.876;2023-05-07T13:05:39;13.70;63.80
14585;DHT22;7379;51.506;11.876;2023-05-07T13:08:06;13.70;63.80
14585;DHT22;7379;51.506;11.876;2023-05-07T13:10:35;13.70;63.80
14585;DHT22;7379;51.506;11.876;2023-05-07T13:13:02;13.70;63.60
14585;DHT22;7379;51.506;11.876;2023-05-07T13:15:29;13.70;63.60
14585;DHT22;7379;51.506;11.876;2023-05-07T13:17:56;13.70;63.60
14585;DHT22;7379;51.506;11.876;2023-05-07T13:20:23;13.70;63.50
14585;DHT22;7379;51.506;11.876;2023-05-07T13:22:51;13.70;63.50
14585;DHT22;7379;51.506;11.876;2023-05-07T13:25:18;13.70;63.50
14585;DHT22;7379;51.506;11.876;2023-05-07T13:27:45;13.70;63.50
14585;DHT22;7379;51.506;11.876;2023-05-07T13:30:12;13.80;63.60
14585;DHT22;7379;51.506;11.876;2023-05-07T13:32:39;13.80;63.50
14585;DHT22;7379;51.506;11.876;2023-05-07T13:35:07;13.80;63.40
14585;DHT22;7379;51.506;11.876;2023-05-07T13:37:33;13.80;63.40
14585;DHT22;7379;51.506;11.876;2023-05-07T13:40:02;13.90;63.20
14585;DHT22;7379;51.506;11.876;2023-05-07T13:42:29;13.90;63.20
14585;DHT22;7379;51.506;11.876;2023-05-07T13:44:56;13.90;63.30
14585;DHT22;7379;51.506;11.876;2023-05-07T13:47:23;13.90;63.10
14585;DHT22;7379;51.506;11.876;2023-05-07T13:49:50;14.00;63.10
14585;DHT22;7379;51.506;11.876;2023-05-07T13:52:17;14.00;63.10
14585;DHT22;7379;51.506;11.876;2023-05-07T13:54:43;14.00;63.00
14585;DHT22;7379;51.506;11.876;2023-05-07T13:57:11;14.10;62.90
14585;DHT22;7379;51.506;11.876;2023-05-07T13:59:38;14.10;62.60
14585;DHT22;7379;51.506;11.876;2023-05-07T14:02:05;14.10;62.60
14585;DHT22;7379;51.506;11.876;2023-05-07T14:04:33;14.10;62.40
14585;DHT22;7379;51.506;11.876;2023-05-07T14:07:00;14.10;62.50
14585;DHT22;7379;51.506;11.876;2023-05-07T14:09:27;14.10;62.70
14585;DHT22;7379;51.506;11.876;2023-05-07T14:11:53;14.10;62.70
14585;DHT22;7379;51.506;11.876;2023-05-07T14:14:22;14.10;62.80
14585;DHT22;7379;51.506;11.876;2023-05-07T14:16:48;14.10;62.90
14585;DHT22;7379;51.506;11.876;2023-05-07T14:19:15;14.10;62.80
14585;DHT22;7379;51.506;11.876;2023-05-07T14:21:42;14.10;62.90
14585;DHT22;7379;51.506;11.876;2023-05-07T14:24:09;14.10;62.90
14585;DHT22;7379;51.506;11.876;2023-05-07T14:26:36;14.00;62.80
14585;DHT22;7379;51.506;11.876;2023-05-07T14:29:03;14.00;62.90
14585;DHT22;7379;51.506;11.876;2023-05-07T14:31:31;14.00;62.90
14585;DHT22;7379;51.506;11.876;2023-05-07T14:33:58;14.00;62.90
14585;DHT22;7379;51.506;11.876;2023-05-07T14:36:25;14.00;62.80
14585;DHT22;7379;51.506;11.876;2023-05-07T14:38:52;14.00;63.60
14585;DHT22;7379;51.506;11.876;2023-05-07T14:41:19;14.00;62.80
14585;DHT22;7379;51.506;11.876;2023-05-07T14:43:46;14.00;62.90
14585;DHT22;7379;51.506;11.876;2023-05-07T14:46:15;14.00;62.90
14585;DHT22;7379;51.506;11.876;2023-05-07T14:48:44;14.00;63.00
14585;DHT22;7379;51.506;11.876;2023-05-07T14:51:11;14.00;62.90
14585;DHT22;7379;51.506;11.876;2023-05-07T14:53:38;14.00;63.00
14585;DHT22;7379;51.506;11.876;2023-05-07T14:56:06;14.00;63.00
14585;DHT22;7379;51.506;11.876;2023-05-07T14:58:33;14.00;62.90
14585;DHT22;7379;51.506;11.876;2023-05-07T15:01:00;14.00;62.80
14585;DHT22;7379;51.506;11.876;2023-05-07T15:03:28;14.00;63.00
14585;DHT22;7379;51.506;11.876;2023-05-07T15:05:56;14.00;63.00
14585;DHT22;7379;51.506;11.876;2023-05-07T15:08:23;14.00;62.90
14585;DHT22;7379;51.506;11.876;2023-05-07T15:10:49;14.00;62.80
14585;DHT22;7379;51.506;11.876;2023-05-07T15:13:16;14.00;62.70
14585;DHT22;7379;51.506;11.876;2023-05-07T15:15:44;14.00;62.60
14585;DHT22;7379;51.506;11.876;2023-05-07T15:18:11;14.00;62.90
14585;DHT22;7379;51.506;11.876;2023-05-07T15:20:39;14.00;62.80
14585;DHT22;7379;51.506;11.876;2023-05-07T15:23:07;14.00;62.70
14585;DHT22;7379;51.506;11.876;2023-05-07T15:25:37;14.10;62.90
14585;DHT22;7379;51.506;11.876;2023-05-07T15:28:04;14.10;62.90
14585;DHT22;7379;51.506;11.876;2023-05-07T15:30:31;14.10;62.90
14585;DHT22;7379;51.506;11.876;2023-05-07T15:32:58;14.10;62.90
14585;DHT22;7379;51.506;11.876;2023-05-07T15:35:25;14.10;62.90
14585;DHT22;7379;51.506;11.876;2023-05-07T15:37:52;14.10;62.90
14585;DHT22;7379;51.506;11.876;2023-05-07T15:40:21;14.10;62.90